Airfield :
LOGIN :

Register | Disclaimer

   EN    FR    IT 

 










Legend :    VFR   Marginal VFR   IFR   Intensive IFR   Very Intensive IFR
Visi :
Ceiling :
>= 8 km
>= 3000ft
5 to 8 km
1000 to 3000 ft
1500m to 5 km
500 to 1000 ft
800 to 1500m
200 to 500 ft
< 800m
< 200 ft
Symbols :   Thunderstorms  Fog  Heavy snow  Heavy precipitations  Wind > 20 kt
SIGMETs :     Misc.  Thunderstorms  Icing  Turbulence  Mountain Waves  Volcanic Ashes







- Airport Elevation : 13 ft
- IATA code : LYX
- Download approach charts


EGMD - Lydd

CURRENT METAR :
  • 240520Z AUTO 27003KT 9999 FEW045/// 07/06 Q1007

EXPIRED METARs :
  • 240450Z AUTO 23004KT 9999 NCD 07/06 Q1007
  • 240420Z AUTO 20004KT 9999 NCD 07/06 Q1007
  • 240350Z AUTO 18004KT 9999 NCD 07/06 Q1006
  • 240320Z AUTO 16002KT 9999 NCD 07/06 Q1006
  • 240250Z AUTO 19001KT 9999 -RA BKN040/// 07/06 Q1006

TAF TAF EGMD
Valid from the 24 at 06:00 until the 24 at 15:00 UTC


240458Z 2406/2415 27006KT 9999 SCT040
PROB30
TEMPO 2409/2415 7000 SHRA
ATIS : +44 1797 322 422
No reported NOTAMs for that airfield.



MET'MAP, your aeronautical weather chart ! - Copyright ORBIFLY December 2007 - Disclaimer

ORBIFLY MET'MAP TEAM :

Programming & Development : Alexandra Zaïnal
Concept & Development : Baudouin d'Aumeries
Co-Development & Prog : Marc-Olivier Méhu
Technical & hardware support : Manuel Goepfert

Contact : metmap@orbifly.com




SOURCES & CREDITS :

   NOAA